sensor_id;sensor_type;location;lat;lon;timestamp;pressure;altitude;pressure_sealevel;temperature;humidity
5550;BME280;2798;42.716;23.256;2023-07-22T00:02:16;94674.13;;;27.34;49.59
5550;BME280;2798;42.716;23.256;2023-07-22T00:04:41;94684.91;;;27.32;49.83
5550;BME280;2798;42.716;23.256;2023-07-22T00:07:07;94681.88;;;27.28;50.17
5550;BME280;2798;42.716;23.256;2023-07-22T00:09:32;94683.66;;;27.35;49.81
5550;BME280;2798;42.716;23.256;2023-07-22T00:11:59;94688.34;;;27.33;49.93
5550;BME280;2798;42.716;23.256;2023-07-22T00:14:24;94681.44;;;27.32;49.98
5550;BME280;2798;42.716;23.256;2023-07-22T00:16:50;94673.41;;;27.20;49.85
5550;BME280;2798;42.716;23.256;2023-07-22T00:19:15;94685.34;;;27.29;49.92
5550;BME280;2798;42.716;23.256;2023-07-22T00:21:41;94681.06;;;27.28;49.67
5550;BME280;2798;42.716;23.256;2023-07-22T00:24:06;94687.97;;;27.29;50.21
5550;BME280;2798;42.716;23.256;2023-07-22T00:26:31;94684.97;;;27.25;50.34
5550;BME280;2798;42.716;23.256;2023-07-22T00:28:57;94687.00;;;27.23;50.60
5550;BME280;2798;42.716;23.256;2023-07-22T00:31:22;94686.84;;;27.18;51.04
5550;BME280;2798;42.716;23.256;2023-07-22T00:33:48;94684.81;;;27.20;50.81
5550;BME280;2798;42.716;23.256;2023-07-22T00:36:13;94683.56;;;27.23;50.90
5550;BME280;2798;42.716;23.256;2023-07-22T00:38:39;94687.50;;;27.13;51.33
5550;BME280;2798;42.716;23.256;2023-07-22T00:41:05;94684.06;;;27.13;51.63
5550;BME280;2798;42.716;23.256;2023-07-22T00:43:31;94686.53;;;27.08;51.68
5550;BME280;2798;42.716;23.256;2023-07-22T00:45:56;94683.72;;;27.02;51.75
5550;BME280;2798;42.716;23.256;2023-07-22T00:48:22;94678.25;;;26.97;51.60
5550;BME280;2798;42.716;23.256;2023-07-22T00:50:48;94697.72;;;27.10;51.86
5550;BME280;2798;42.716;23.256;2023-07-22T00:53:14;94701.34;;;27.09;51.87
5550;BME280;2798;42.716;23.256;2023-07-22T00:55:39;94705.06;;;27.01;52.45
5550;BME280;2798;42.716;23.256;2023-07-22T00:58:08;94703.03;;;27.03;52.42
5550;BME280;2798;42.716;23.256;2023-07-22T01:00:33;94693.06;;;27.05;52.09
5550;BME280;2798;42.716;23.256;2023-07-22T01:02:59;94694.06;;;27.04;52.19
5550;BME280;2798;42.716;23.256;2023-07-22T01:05:26;94683.72;;;27.02;52.29
5550;BME280;2798;42.716;23.256;2023-07-22T01:07:52;94678.22;;;27.04;52.43
5550;BME280;2798;42.716;23.256;2023-07-22T01:10:18;94677.84;;;27.00;52.18
5550;BME280;2798;42.716;23.256;2023-07-22T01:12:44;94679.28;;;26.96;52.84
5550;BME280;2798;42.716;23.256;2023-07-22T01:15:10;94665.88;;;26.72;53.38
5550;BME280;2798;42.716;23.256;2023-07-22T01:17:39;94673.53;;;26.81;53.21
5550;BME280;2798;42.716;23.256;2023-07-22T01:20:05;94685.25;;;26.85;53.41
5550;BME280;2798;42.716;23.256;2023-07-22T01:22:33;94688.59;;;26.73;53.71
5550;BME280;2798;42.716;23.256;2023-07-22T01:24:59;94666.91;;;26.71;53.20
5550;BME280;2798;42.716;23.256;2023-07-22T01:27:25;94681.50;;;26.74;52.85
5550;BME280;2798;42.716;23.256;2023-07-22T01:29:51;94657.72;;;26.74;53.26
5550;BME280;2798;42.716;23.256;2023-07-22T01:32:17;94648.25;;;26.66;53.18
5550;BME280;2798;42.716;23.256;2023-07-22T01:34:42;94667.03;;;26.76;53.09
5550;BME280;2798;42.716;23.256;2023-07-22T01:37:08;94654.50;;;26.72;53.25
5550;BME280;2798;42.716;23.256;2023-07-22T01:39:35;94661.97;;;26.75;53.23
5550;BME280;2798;42.716;23.256;2023-07-22T01:42:01;94660.03;;;26.63;53.63
5550;BME280;2798;42.716;23.256;2023-07-22T01:44:27;94660.63;;;26.65;53.37
5550;BME280;2798;42.716;23.256;2023-07-22T01:46:52;94654.19;;;26.61;53.45
5550;BME280;2798;42.716;23.256;2023-07-22T01:49:18;94660.47;;;26.60;53.76
5550;BME280;2798;42.716;23.256;2023-07-22T01:51:43;94640.53;;;26.39;53.87
5550;BME280;2798;42.716;23.256;2023-07-22T01:54:09;94646.34;;;26.48;54.16
5550;BME280;2798;42.716;23.256;2023-07-22T01:56:36;94668.22;;;26.55;53.83
5550;BME280;2798;42.716;23.256;2023-07-22T01:59:01;94639.22;;;26.55;53.33
5550;BME280;2798;42.716;23.256;2023-07-22T02:01:27;94629.16;;;26.38;53.31
5550;BME280;2798;42.716;23.256;2023-07-22T02:03:53;94648.06;;;26.35;53.50
5550;BME280;2798;42.716;23.256;2023-07-22T02:06:19;94649.84;;;26.41;53.83
5550;BME280;2798;42.716;23.256;2023-07-22T02:08:44;94658.19;;;26.38;54.51
5550;BME280;2798;42.716;23.256;2023-07-22T02:11:11;94631.47;;;26.21;54.07
5550;BME280;2798;42.716;23.256;2023-07-22T02:13:37;94655.16;;;26.35;54.29
5550;BME280;2798;42.716;23.256;2023-07-22T02:16:03;94622.38;;;26.10;54.15
5550;BME280;2798;42.716;23.256;2023-07-22T02:18:29;94649.88;;;26.28;54.53
5550;BME280;2798;42.716;23.256;2023-07-22T02:20:55;94657.22;;;26.26;54.32
5550;BME280;2798;42.716;23.256;2023-07-22T02:23:21;94659.84;;;26.26;54.48
5550;BME280;2798;42.716;23.256;2023-07-22T02:25:51;94655.44;;;26.20;54.56
5550;BME280;2798;42.716;23.256;2023-07-22T02:28:17;94648.53;;;26.12;54.98
5550;BME280;2798;42.716;23.256;2023-07-22T02:30:47;94651.41;;;26.10;55.26
5550;BME280;2798;42.716;23.256;2023-07-22T02:33:13;94659.94;;;26.05;55.50
5550;BME280;2798;42.716;23.256;2023-07-22T02:35:40;94668.66;;;26.06;56.01
5550;BME280;2798;42.716;23.256;2023-07-22T02:38:06;94671.31;;;26.06;55.73
5550;BME280;2798;42.716;23.256;2023-07-22T02:40:39;94660.44;;;25.89;56.13
5550;BME280;2798;42.716;23.256;2023-07-22T02:43:04;94637.19;;;25.72;56.47
5550;BME280;2798;42.716;23.256;2023-07-22T02:45:32;94655.31;;;26.01;56.24
5550;BME280;2798;42.716;23.256;2023-07-22T02:47:57;94664.88;;;25.88;57.11
5550;BME280;2798;42.716;23.256;2023-07-22T02:50:23;94669.13;;;25.89;57.45
5550;BME280;2798;42.716;23.256;2023-07-22T02:52:48;94665.53;;;25.77;58.51
5550;BME280;2798;42.716;23.256;2023-07-22T02:55:15;94672.63;;;25.76;58.54
5550;BME280;2798;42.716;23.256;2023-07-22T02:57:44;94667.22;;;25.64;58.56
5550;BME280;2798;42.716;23.256;2023-07-22T03:00:10;94662.31;;;25.61;58.87
5550;BME280;2798;42.716;23.256;2023-07-22T03:02:39;94669.00;;;25.71;58.47
5550;BME280;2798;42.716;23.256;2023-07-22T03:05:06;94668.81;;;25.72;57.99
5550;BME280;2798;42.716;23.256;2023-07-22T03:07:36;94669.00;;;25.71;58.03
5550;BME280;2798;42.716;23.256;2023-07-22T03:10:03;94674.47;;;25.76;57.96
5550;BME280;2798;42.716;23.256;2023-07-22T03:12:29;94673.66;;;25.68;58.32
5550;BME280;2798;42.716;23.256;2023-07-22T03:14:55;94677.72;;;25.58;58.70
5550;BME280;2798;42.716;23.256;2023-07-22T03:17:20;94671.88;;;25.62;58.35
5550;BME280;2798;42.716;23.256;2023-07-22T03:19:46;94672.69;;;25.70;58.25
5550;BME280;2798;42.716;23.256;2023-07-22T03:22:15;94676.94;;;25.64;58.52
5550;BME280;2798;42.716;23.256;2023-07-22T03:24:47;94676.13;;;25.63;58.05
5550;BME280;2798;42.716;23.256;2023-07-22T03:27:14;94678.56;;;25.58;58.64
5550;BME280;2798;42.716;23.256;2023-07-22T03:29:40;94690.72;;;25.66;58.50
5550;BME280;2798;42.716;23.256;2023-07-22T03:32:07;94687.47;;;25.64;58.04
5550;BME280;2798;42.716;23.256;2023-07-22T03:34:32;94690.50;;;25.67;57.83
5550;BME280;2798;42.716;23.256;2023-07-22T03:36:58;94689.25;;;25.77;57.47
5550;BME280;2798;42.716;23.256;2023-07-22T03:39:23;94698.63;;;25.73;57.20
5550;BME280;2798;42.716;23.256;2023-07-22T03:41:49;94708.34;;;25.65;57.80
5550;BME280;2798;42.716;23.256;2023-07-22T03:44:14;94703.47;;;25.69;57.75
5550;BME280;2798;42.716;23.256;2023-07-22T03:46:40;94694.75;;;25.68;57.58
5550;BME280;2798;42.716;23.256;2023-07-22T03:49:05;94686.66;;;25.57;58.10
5550;BME280;2798;42.716;23.256;2023-07-22T03:51:31;94710.56;;;25.68;57.83
5550;BME280;2798;42.716;23.256;2023-07-22T03:53:57;94713.63;;;25.65;58.08
5550;BME280;2798;42.716;23.256;2023-07-22T03:56:22;94710.97;;;25.65;58.29
5550;BME280;2798;42.716;23.256;2023-07-22T03:58:49;94695.34;;;25.57;58.48
5550;BME280;2798;42.716;23.256;2023-07-22T04:01:15;94713.41;;;25.67;58.67
5550;BME280;2798;42.716;23.256;2023-07-22T04:03:40;94713.63;;;25.65;58.44
5550;BME280;2798;42.716;23.256;2023-07-22T04:06:06;94718.25;;;25.70;58.69
5550;BME280;2798;42.716;23.256;2023-07-22T04:08:31;94714.00;;;25.76;58.61
5550;BME280;2798;42.716;23.256;2023-07-22T04:10:57;94721.69;;;25.84;58.41
5550;BME280;2798;42.716;23.256;2023-07-22T04:13:24;94687.25;;;25.59;58.44
5550;BME280;2798;42.716;23.256;2023-07-22T04:15:50;94713.38;;;25.80;58.41
5550;BME280;2798;42.716;23.256;2023-07-22T04:18:16;94722.69;;;25.83;58.39
5550;BME280;2798;42.716;23.256;2023-07-22T04:20:43;94709.72;;;25.82;58.66
5550;BME280;2798;42.716;23.256;2023-07-22T04:23:08;94701.25;;;25.73;58.26
5550;BME280;2798;42.716;23.256;2023-07-22T04:25:41;94722.66;;;25.97;58.78
5550;BME280;2798;42.716;23.256;2023-07-22T04:28:07;94695.34;;;25.77;58.56
5550;BME280;2798;42.716;23.256;2023-07-22T04:30:34;94737.22;;;26.06;58.66
5550;BME280;2798;42.716;23.256;2023-07-22T04:32:59;94740.63;;;26.13;57.95
5550;BME280;2798;42.716;23.256;2023-07-22T04:35:25;94730.91;;;26.14;58.43
5550;BME280;2798;42.716;23.256;2023-07-22T04:37:50;94734.34;;;26.14;58.37
5550;BME280;2798;42.716;23.256;2023-07-22T04:40:16;94738.59;;;26.15;58.26
5550;BME280;2798;42.716;23.256;2023-07-22T04:42:42;94739.00;;;26.19;58.40
5550;BME280;2798;42.716;23.256;2023-07-22T04:45:08;94748.72;;;26.25;58.39
5550;BME280;2798;42.716;23.256;2023-07-22T04:47:38;94735.53;;;26.32;58.02
5550;BME280;2798;42.716;23.256;2023-07-22T04:50:09;94691.59;;;25.99;58.18
5550;BME280;2798;42.716;23.256;2023-07-22T04:52:36;94752.31;;;26.31;58.25
5550;BME280;2798;42.716;23.256;2023-07-22T04:55:02;94736.13;;;26.34;58.17
5550;BME280;2798;42.716;23.256;2023-07-22T04:57:38;94744.63;;;26.36;58.40
5550;BME280;2798;42.716;23.256;2023-07-22T05:00:06;94746.84;;;26.39;58.24
5550;BME280;2798;42.716;23.256;2023-07-22T05:02:34;94730.25;;;26.32;58.31
5550;BME280;2798;42.716;23.256;2023-07-22T05:05:00;94759.56;;;26.56;57.81
5550;BME280;2798;42.716;23.256;2023-07-22T05:07:25;94753.66;;;26.61;58.07
5550;BME280;2798;42.716;23.256;2023-07-22T05:09:51;94766.22;;;26.59;58.14
5550;BME280;2798;42.716;23.256;2023-07-22T05:12:17;94763.38;;;26.60;58.27
5550;BME280;2798;42.716;23.256;2023-07-22T05:14:45;94743.75;;;26.49;58.49
5550;BME280;2798;42.716;23.256;2023-07-22T05:17:11;94757.25;;;26.66;58.25
5550;BME280;2798;42.716;23.256;2023-07-22T05:19:36;94758.47;;;26.71;58.64
5550;BME280;2798;42.716;23.256;2023-07-22T05:22:01;94746.44;;;26.75;58.23
5550;BME280;2798;42.716;23.256;2023-07-22T05:24:27;94759.22;;;26.78;58.30
5550;BME280;2798;42.716;23.256;2023-07-22T05:26:52;94764.91;;;26.82;58.31
5550;BME280;2798;42.716;23.256;2023-07-22T05:29:19;94763.06;;;26.82;58.25
5550;BME280;2798;42.716;23.256;2023-07-22T05:31:44;94759.56;;;26.88;58.41
5550;BME280;2798;42.716;23.256;2023-07-22T05:34:10;94768.25;;;26.96;58.17
5550;BME280;2798;42.716;23.256;2023-07-22T05:36:35;94765.81;;;26.94;57.83
5550;BME280;2798;42.716;23.256;2023-07-22T05:39:01;94770.47;;;26.99;58.14
5550;BME280;2798;42.716;23.256;2023-07-22T05:41:26;94758.72;;;26.95;58.11
5550;BME280;2798;42.716;23.256;2023-07-22T05:43:52;94767.59;;;27.07;58.52
5550;BME280;2798;42.716;23.256;2023-07-22T05:46:17;94763.94;;;27.08;58.71
5550;BME280;2798;42.716;23.256;2023-07-22T05:48:42;94726.91;;;26.83;59.39
5550;BME280;2798;42.716;23.256;2023-07-22T05:51:09;94750.34;;;27.05;58.83
5550;BME280;2798;42.716;23.256;2023-07-22T05:53:34;94755.50;;;27.18;58.65
5550;BME280;2798;42.716;23.256;2023-07-22T05:56:00;94762.44;;;27.19;58.73
5550;BME280;2798;42.716;23.256;2023-07-22T05:58:25;94759.19;;;27.17;58.40
5550;BME280;2798;42.716;23.256;2023-07-22T06:00:52;94777.03;;;27.22;58.57
5550;BME280;2798;42.716;23.256;2023-07-22T06:03:18;94779.41;;;27.30;58.43
5550;BME280;2798;42.716;23.256;2023-07-22T06:05:43;94792.16;;;27.40;58.53
5550;BME280;2798;42.716;23.256;2023-07-22T06:08:09;94776.34;;;27.33;58.23
5550;BME280;2798;42.716;23.256;2023-07-22T06:10:34;94794.13;;;27.45;58.31
5550;BME280;2798;42.716;23.256;2023-07-22T06:13:02;94802.25;;;27.50;58.16
5550;BME280;2798;42.716;23.256;2023-07-22T06:15:27;94813.72;;;27.37;58.51
5550;BME280;2798;42.716;23.256;2023-07-22T06:17:53;94805.75;;;27.44;58.46
5550;BME280;2798;42.716;23.256;2023-07-22T06:20:18;94787.25;;;27.44;58.65
5550;BME280;2798;42.716;23.256;2023-07-22T06:22:44;94801.41;;;27.49;58.23
5550;BME280;2798;42.716;23.256;2023-07-22T06:25:09;94806.22;;;27.59;58.45
5550;BME280;2798;42.716;23.256;2023-07-22T06:27:35;94805.53;;;27.71;58.12
5550;BME280;2798;42.716;23.256;2023-07-22T06:30:03;94809.56;;;27.73;57.97
5550;BME280;2798;42.716;23.256;2023-07-22T06:32:29;94809.78;;;27.72;57.78
5550;BME280;2798;42.716;23.256;2023-07-22T06:34:56;94835.09;;;27.86;57.31
5550;BME280;2798;42.716;23.256;2023-07-22T06:37:23;94814.69;;;27.94;57.47
5550;BME280;2798;42.716;23.256;2023-07-22T06:39:48;94809.53;;;27.99;57.19
5550;BME280;2798;42.716;23.256;2023-07-22T06:42:13;94819.44;;;28.04;57.06
5550;BME280;2798;42.716;23.256;2023-07-22T06:44:39;94809.53;;;27.99;56.96
5550;BME280;2798;42.716;23.256;2023-07-22T06:47:04;94815.94;;;28.10;56.97
5550;BME280;2798;42.716;23.256;2023-07-22T06:49:30;94814.41;;;28.21;56.73
5550;BME280;2798;42.716;23.256;2023-07-22T06:51:55;94806.91;;;28.18;56.21
5550;BME280;2798;42.716;23.256;2023-07-22T06:54:21;94817.06;;;28.21;56.60
5550;BME280;2798;42.716;23.256;2023-07-22T06:56:47;94815.19;;;28.21;56.28
5550;BME280;2798;42.716;23.256;2023-07-22T06:59:12;94790.97;;;28.24;56.10
5550;BME280;2798;42.716;23.256;2023-07-22T07:01:37;94800.03;;;28.35;55.87
5550;BME280;2798;42.716;23.256;2023-07-22T07:04:03;94798.47;;;28.46;55.71
5550;BME280;2798;42.716;23.256;2023-07-22T07:06:28;94803.31;;;28.49;55.76
5550;BME280;2798;42.716;23.256;2023-07-22T07:08:55;94783.19;;;28.48;55.51
5550;BME280;2798;42.716;23.256;2023-07-22T07:11:20;94797.28;;;28.73;54.88
5550;BME280;2798;42.716;23.256;2023-07-22T07:13:46;94799.28;;;28.78;54.97
5550;BME280;2798;42.716;23.256;2023-07-22T07:16:30;94796.31;;;28.86;54.56
5550;BME280;2798;42.716;23.256;2023-07-22T07:18:57;94799.69;;;28.93;54.57
5550;BME280;2798;42.716;23.256;2023-07-22T07:21:23;94802.28;;;29.00;54.29
5550;BME280;2798;42.716;23.256;2023-07-22T07:23:49;94803.19;;;29.06;53.72
5550;BME280;2798;42.716;23.256;2023-07-22T07:26:15;94789.84;;;29.12;54.10
5550;BME280;2798;42.716;23.256;2023-07-22T07:28:42;94774.06;;;29.06;53.70
5550;BME280;2798;42.716;23.256;2023-07-22T07:31:07;94772.34;;;29.11;53.51
5550;BME280;2798;42.716;23.256;2023-07-22T07:33:33;94771.66;;;29.16;53.71
5550;BME280;2798;42.716;23.256;2023-07-22T07:35:59;94783.78;;;29.36;53.36
5550;BME280;2798;42.716;23.256;2023-07-22T07:38:25;94786.91;;;29.45;52.61
5550;BME280;2798;42.716;23.256;2023-07-22T07:40:56;94763.50;;;29.42;52.73
5550;BME280;2798;42.716;23.256;2023-07-22T07:43:22;94779.91;;;29.63;52.50
5550;BME280;2798;42.716;23.256;2023-07-22T07:45:47;94778.75;;;29.70;52.01
5550;BME280;2798;42.716;23.256;2023-07-22T07:48:13;94780.94;;;29.73;52.08
5550;BME280;2798;42.716;23.256;2023-07-22T07:50:38;94744.72;;;29.55;52.37
5550;BME280;2798;42.716;23.256;2023-07-22T07:53:04;94771.13;;;29.86;51.90
5550;BME280;2798;42.716;23.256;2023-07-22T07:55:29;94782.22;;;29.95;52.27
5550;BME280;2798;42.716;23.256;2023-07-22T07:57:55;94745.31;;;29.81;52.27
5550;BME280;2798;42.716;23.256;2023-07-22T08:00:20;94773.19;;;30.08;51.45
5550;BME280;2798;42.716;23.256;2023-07-22T08:02:46;94767.31;;;30.06;52.20
5550;BME280;2798;42.716;23.256;2023-07-22T08:05:12;94773.50;;;30.11;51.44
5550;BME280;2798;42.716;23.256;2023-07-22T08:07:38;94769.94;;;30.18;51.78
5550;BME280;2798;42.716;23.256;2023-07-22T08:10:05;94774.34;;;30.24;51.51
5550;BME280;2798;42.716;23.256;2023-07-22T08:12:32;94772.81;;;30.28;51.54
5550;BME280;2798;42.716;23.256;2023-07-22T08:14:57;94773.50;;;30.35;51.24
5550;BME280;2798;42.716;23.256;2023-07-22T08:17:23;94777.88;;;30.42;51.18
5550;BME280;2798;42.716;23.256;2023-07-22T08:19:48;94780.06;;;30.45;50.79
5550;BME280;2798;42.716;23.256;2023-07-22T08:22:14;94777.03;;;30.53;50.83
5550;BME280;2798;42.716;23.256;2023-07-22T08:24:40;94776.06;;;30.59;50.56
5550;BME280;2798;42.716;23.256;2023-07-22T08:27:05;94774.53;;;30.64;51.05
5550;BME280;2798;42.716;23.256;2023-07-22T08:29:30;94753.31;;;30.64;50.41
5550;BME280;2798;42.716;23.256;2023-07-22T08:31:56;94754.63;;;30.78;49.99
5550;BME280;2798;42.716;23.256;2023-07-22T08:34:21;94747.25;;;30.80;50.38
5550;BME280;2798;42.716;23.256;2023-07-22T08:36:47;94748.47;;;30.90;49.76
5550;BME280;2798;42.716;23.256;2023-07-22T08:39:12;94743.00;;;30.96;49.26
5550;BME280;2798;42.716;23.256;2023-07-22T08:41:38;94741.00;;;31.04;49.72
5550;BME280;2798;42.716;23.256;2023-07-22T08:44:04;94733.34;;;31.07;49.02
5550;BME280;2798;42.716;23.256;2023-07-22T08:46:33;94736.34;;;31.11;49.30
5550;BME280;2798;42.716;23.256;2023-07-22T08:49:02;94721.25;;;31.17;48.96
5550;BME280;2798;42.716;23.256;2023-07-22T08:51:29;94721.59;;;31.20;48.38
5550;BME280;2798;42.716;23.256;2023-07-22T08:53:57;94722.94;;;31.23;48.84
5550;BME280;2798;42.716;23.256;2023-07-22T08:56:26;94686.25;;;31.03;48.51
5550;BME280;2798;42.716;23.256;2023-07-22T08:58:52;94715.94;;;31.17;47.93
5550;BME280;2798;42.716;23.256;2023-07-22T09:01:18;94721.09;;;31.24;48.82
5550;BME280;2798;42.716;23.256;2023-07-22T09:03:43;94714.91;;;31.35;48.24
5550;BME280;2798;42.716;23.256;2023-07-22T09:06:10;94715.31;;;31.44;47.57
5550;BME280;2798;42.716;23.256;2023-07-22T09:08:36;94711.44;;;31.52;47.49
5550;BME280;2798;42.716;23.256;2023-07-22T09:11:03;94728.97;;;31.70;46.80
5550;BME280;2798;42.716;23.256;2023-07-22T09:13:29;94710.00;;;31.66;46.19
5550;BME280;2798;42.716;23.256;2023-07-22T09:15:59;94697.94;;;31.58;46.93
5550;BME280;2798;42.716;23.256;2023-07-22T09:18:25;94723.72;;;31.75;46.69
5550;BME280;2798;42.716;23.256;2023-07-22T09:20:51;94716.09;;;31.84;46.18
5550;BME280;2798;42.716;23.256;2023-07-22T09:23:17;94714.00;;;31.86;45.62
5550;BME280;2798;42.716;23.256;2023-07-22T09:25:42;94713.56;;;31.94;45.43
5550;BME280;2798;42.716;23.256;2023-07-22T09:28:08;94710.84;;;32.06;45.33
5550;BME280;2798;42.716;23.256;2023-07-22T09:30:36;94714.22;;;32.24;45.25
5550;BME280;2798;42.716;23.256;2023-07-22T09:33:05;94710.94;;;32.17;44.78
5550;BME280;2798;42.716;23.256;2023-07-22T09:35:44;94700.41;;;32.27;44.33
5550;BME280;2798;42.716;23.256;2023-07-22T09:38:09;94699.22;;;32.40;44.54
5550;BME280;2798;42.716;23.256;2023-07-22T09:40:44;94698.88;;;32.59;44.65
5550;BME280;2798;42.716;23.256;2023-07-22T09:43:10;94692.34;;;32.72;44.26
5550;BME280;2798;42.716;23.256;2023-07-22T09:45:37;94664.38;;;32.75;43.44
5550;BME280;2798;42.716;23.256;2023-07-22T09:48:03;94682.69;;;32.99;41.40
5550;BME280;2798;42.716;23.256;2023-07-22T09:50:29;94682.53;;;33.11;42.15
5550;BME280;2798;42.716;23.256;2023-07-22T09:52:57;94674.38;;;33.23;38.51
5550;BME280;2798;42.716;23.256;2023-07-22T09:55:31;94681.94;;;33.41;37.45
5550;BME280;2798;42.716;23.256;2023-07-22T09:58:01;94674.50;;;33.49;36.57
5550;BME280;2798;42.716;23.256;2023-07-22T10:00:34;94685.03;;;33.66;36.94
5550;BME280;2798;42.716;23.256;2023-07-22T10:03:01;94686.16;;;33.75;37.03
5550;BME280;2798;42.716;23.256;2023-07-22T10:05:27;94683.22;;;33.77;36.27
5550;BME280;2798;42.716;23.256;2023-07-22T10:07:58;94683.53;;;33.91;36.70
5550;BME280;2798;42.716;23.256;2023-07-22T10:10:27;94689.72;;;33.97;36.18
5550;BME280;2798;42.716;23.256;2023-07-22T10:12:55;94669.72;;;34.04;36.04
5550;BME280;2798;42.716;23.256;2023-07-22T10:15:24;94675.94;;;34.21;35.87
5550;BME280;2798;42.716;23.256;2023-07-22T10:17:50;94671.97;;;34.34;35.77
5550;BME280;2798;42.716;23.256;2023-07-22T10:20:16;94682.66;;;34.44;36.08
5550;BME280;2798;42.716;23.256;2023-07-22T10:22:46;94676.25;;;34.61;35.61
5550;BME280;2798;42.716;23.256;2023-07-22T10:25:15;94670.94;;;34.66;35.29
5550;BME280;2798;42.716;23.256;2023-07-22T10:27:41;94666.41;;;34.72;35.75
5550;BME280;2798;42.716;23.256;2023-07-22T10:30:08;94661.06;;;34.77;35.74
5550;BME280;2798;42.716;23.256;2023-07-22T10:33:01;94663.47;;;34.89;35.15
5550;BME280;2798;42.716;23.256;2023-07-22T10:38:10;94668.81;;;35.05;33.09
5550;BME280;2798;42.716;23.256;2023-07-22T10:40:46;94659.97;;;35.14;32.16
5550;BME280;2798;42.716;23.256;2023-07-22T10:43:15;94665.31;;;35.25;31.75
5550;BME280;2798;42.716;23.256;2023-07-22T10:45:43;94667.72;;;35.32;32.29
5550;BME280;2798;42.716;23.256;2023-07-22T10:48:10;94665.81;;;35.43;31.69
5550;BME280;2798;42.716;23.256;2023-07-22T10:53:09;94658.00;;;35.67;31.16
5550;BME280;2798;42.716;23.256;2023-07-22T11:06:38;94635.22;;;35.80;29.90
5550;BME280;2798;42.716;23.256;2023-07-22T11:09:04;94642.97;;;35.87;30.38
5550;BME280;2798;42.716;23.256;2023-07-22T11:11:48;94647.44;;;35.97;30.49
5550;BME280;2798;42.716;23.256;2023-07-22T11:14:18;94640.69;;;36.10;30.40
5550;BME280;2798;42.716;23.256;2023-07-22T11:16:46;94639.31;;;36.23;30.40
5550;BME280;2798;42.716;23.256;2023-07-22T11:19:13;94641.97;;;36.28;29.58
5550;BME280;2798;42.716;23.256;2023-07-22T11:21:39;94642.97;;;36.37;30.29
5550;BME280;2798;42.716;23.256;2023-07-22T11:24:06;94647.56;;;36.32;30.01
5550;BME280;2798;42.716;23.256;2023-07-22T11:26:32;94652.13;;;36.26;30.72
5550;BME280;2798;42.716;23.256;2023-07-22T11:29:00;94652.47;;;36.09;30.87
5550;BME280;2798;42.716;23.256;2023-07-22T11:31:33;94646.09;;;36.05;30.72
5550;BME280;2798;42.716;23.256;2023-07-22T11:33:59;94631.91;;;36.04;30.19
5550;BME280;2798;42.716;23.256;2023-07-22T11:36:26;94643.53;;;36.29;31.08
5550;BME280;2798;42.716;23.256;2023-07-22T11:38:52;94628.25;;;36.35;30.43
5550;BME280;2798;42.716;23.256;2023-07-22T11:41:17;94625.00;;;36.38;31.52
5550;BME280;2798;42.716;23.256;2023-07-22T11:43:43;94632.50;;;36.41;30.93
5550;BME280;2798;42.716;23.256;2023-07-22T11:46:09;94616.75;;;36.29;30.77
5550;BME280;2798;42.716;23.256;2023-07-22T11:48:35;94621.81;;;36.36;30.42
5550;BME280;2798;42.716;23.256;2023-07-22T11:51:01;94624.97;;;36.43;31.10
5550;BME280;2798;42.716;23.256;2023-07-22T11:53:27;94620.38;;;36.49;31.26
5550;BME280;2798;42.716;23.256;2023-07-22T11:55:56;94632.38;;;36.57;30.90
5550;BME280;2798;42.716;23.256;2023-07-22T11:58:28;94612.16;;;36.40;30.59
5550;BME280;2798;42.716;23.256;2023-07-22T12:01:05;94623.59;;;36.51;31.03
5550;BME280;2798;42.716;23.256;2023-07-22T12:03:32;94615.25;;;36.53;30.77
5550;BME280;2798;42.716;23.256;2023-07-22T12:06:06;94616.53;;;36.60;30.10
5550;BME280;2798;42.716;23.256;2023-07-22T12:08:33;94613.81;;;36.66;29.39
5550;BME280;2798;42.716;23.256;2023-07-22T12:10:59;94614.84;;;36.75;30.82
5550;BME280;2798;42.716;23.256;2023-07-22T12:13:43;94613.44;;;36.83;30.30
5550;BME280;2798;42.716;23.256;2023-07-22T12:16:12;94601.16;;;36.77;30.17
5550;BME280;2798;42.716;23.256;2023-07-22T12:18:42;94599.00;;;36.79;29.86
5550;BME280;2798;42.716;23.256;2023-07-22T12:21:07;94595.66;;;36.92;28.58
5550;BME280;2798;42.716;23.256;2023-07-22T12:23:35;94591.41;;;36.86;29.96
5550;BME280;2798;42.716;23.256;2023-07-22T12:26:01;94596.13;;;37.00;29.71
5550;BME280;2798;42.716;23.256;2023-07-22T12:28:26;94586.91;;;37.11;28.21
5550;BME280;2798;42.716;23.256;2023-07-22T12:30:51;94585.44;;;37.24;28.52
5550;BME280;2798;42.716;23.256;2023-07-22T12:33:17;94585.66;;;37.28;28.69
5550;BME280;2798;42.716;23.256;2023-07-22T12:35:42;94584.69;;;37.43;28.79
5550;BME280;2798;42.716;23.256;2023-07-22T12:38:08;94590.59;;;37.64;28.94
5550;BME280;2798;42.716;23.256;2023-07-22T12:40:33;94601.16;;;37.80;28.65
5550;BME280;2798;42.716;23.256;2023-07-22T12:42:58;94570.94;;;37.93;27.91
5550;BME280;2798;42.716;23.256;2023-07-22T12:45:24;94578.22;;;38.07;28.29
5550;BME280;2798;42.716;23.256;2023-07-22T12:47:49;94564.63;;;38.23;28.05
5550;BME280;2798;42.716;23.256;2023-07-22T12:50:15;94571.22;;;38.30;27.48
5550;BME280;2798;42.716;23.256;2023-07-22T12:52:40;94575.50;;;38.31;26.86
5550;BME280;2798;42.716;23.256;2023-07-22T12:55:06;94582.66;;;38.36;27.32
5550;BME280;2798;42.716;23.256;2023-07-22T12:57:31;94586.38;;;38.40;26.54
5550;BME280;2798;42.716;23.256;2023-07-22T12:59:57;94578.22;;;38.45;26.81
5550;BME280;2798;42.716;23.256;2023-07-22T13:02:22;94571.56;;;38.43;26.75
5550;BME280;2798;42.716;23.256;2023-07-22T13:04:48;94561.31;;;38.45;27.20
5550;BME280;2798;42.716;23.256;2023-07-22T13:07:13;94563.91;;;38.50;26.60
5550;BME280;2798;42.716;23.256;2023-07-22T13:09:44;94554.47;;;38.53;26.61
5550;BME280;2798;42.716;23.256;2023-07-22T13:12:11;94555.75;;;38.55;25.96
5550;BME280;2798;42.716;23.256;2023-07-22T13:14:37;94548.88;;;38.63;26.62
5550;BME280;2798;42.716;23.256;2023-07-22T13:17:02;94554.44;;;38.72;25.63
5550;BME280;2798;42.716;23.256;2023-07-22T13:19:28;94553.44;;;38.49;25.93
5550;BME280;2798;42.716;23.256;2023-07-22T13:21:53;94532.22;;;37.94;25.81
5550;BME280;2798;42.716;23.256;2023-07-22T13:24:21;94543.50;;;37.77;26.33